sensor_id;sensor_type;location;lat;lon;timestamp;P1;durP1;ratioP1;P2;durP2;ratioP2
74650;SDS011;63169;46.042;14.592;2024-01-25T00:02:01;23.55;;;13.75;;
74650;SDS011;63169;46.042;14.592;2024-01-25T00:04:28;28.58;;;16.05;;
74650;SDS011;63169;46.042;14.592;2024-01-25T00:06:53;21.92;;;12.77;;
74650;SDS011;63169;46.042;14.592;2024-01-25T00:09:22;22.38;;;13.65;;
74650;SDS011;63169;46.042;14.592;2024-01-25T00:11:47;23.20;;;14.65;;
74650;SDS011;63169;46.042;14.592;2024-01-25T00:14:13;20.67;;;13.25;;
74650;SDS011;63169;46.042;14.592;2024-01-25T00:16:41;19.85;;;13.93;;
74650;SDS011;63169;46.042;14.592;2024-01-25T00:19:07;22.60;;;13.35;;
74650;SDS011;63169;46.042;14.592;2024-01-25T00:21:32;23.63;;;13.48;;
74650;SDS011;63169;46.042;14.592;2024-01-25T00:23:58;28.13;;;17.48;;
74650;SDS011;63169;46.042;14.592;2024-01-25T00:26:23;25.92;;;13.20;;
74650;SDS011;63169;46.042;14.592;2024-01-25T00:28:49;27.17;;;15.82;;
74650;SDS011;63169;46.042;14.592;2024-01-25T00:31:14;30.50;;;17.80;;
74650;SDS011;63169;46.042;14.592;2024-01-25T00:33:39;29.85;;;18.58;;
74650;SDS011;63169;46.042;14.592;2024-01-25T00:36:05;26.73;;;16.65;;
74650;SDS011;63169;46.042;14.592;2024-01-25T00:38:31;28.95;;;17.90;;
74650;SDS011;63169;46.042;14.592;2024-01-25T00:40:57;25.77;;;16.38;;
74650;SDS011;63169;46.042;14.592;2024-01-25T00:43:23;25.05;;;16.75;;
74650;SDS011;63169;46.042;14.592;2024-01-25T00:45:48;30.20;;;16.58;;
74650;SDS011;63169;46.042;14.592;2024-01-25T00:48:14;21.35;;;14.00;;
74650;SDS011;63169;46.042;14.592;2024-01-25T00:50:40;25.05;;;16.45;;
74650;SDS011;63169;46.042;14.592;2024-01-25T00:53:06;24.50;;;14.52;;
74650;SDS011;63169;46.042;14.592;2024-01-25T00:55:32;23.85;;;16.73;;
74650;SDS011;63169;46.042;14.592;2024-01-25T00:57:57;23.67;;;14.55;;
74650;SDS011;63169;46.042;14.592;2024-01-25T01:00:25;23.88;;;14.63;;
74650;SDS011;63169;46.042;14.592;2024-01-25T01:02:50;21.85;;;15.93;;
74650;SDS011;63169;46.042;14.592;2024-01-25T01:05:18;23.50;;;14.23;;
74650;SDS011;63169;46.042;14.592;2024-01-25T01:07:44;25.65;;;16.38;;
74650;SDS011;63169;46.042;14.592;2024-01-25T01:10:10;26.88;;;15.57;;
74650;SDS011;63169;46.042;14.592;2024-01-25T01:12:35;27.13;;;15.63;;
74650;SDS011;63169;46.042;14.592;2024-01-25T01:15:01;25.58;;;15.68;;
74650;SDS011;63169;46.042;14.592;2024-01-25T01:17:27;30.38;;;18.58;;
74650;SDS011;63169;46.042;14.592;2024-01-25T01:19:52;23.27;;;13.48;;
74650;SDS011;63169;46.042;14.592;2024-01-25T01:22:18;24.90;;;15.90;;
74650;SDS011;63169;46.042;14.592;2024-01-25T01:24:43;23.15;;;14.85;;
74650;SDS011;63169;46.042;14.592;2024-01-25T01:27:09;23.08;;;14.10;;
74650;SDS011;63169;46.042;14.592;2024-01-25T01:29:34;19.15;;;15.07;;
74650;SDS011;63169;46.042;14.592;2024-01-25T01:32:00;21.30;;;14.93;;
74650;SDS011;63169;46.042;14.592;2024-01-25T01:34:25;26.17;;;15.05;;
74650;SDS011;63169;46.042;14.592;2024-01-25T01:36:50;23.90;;;15.98;;
74650;SDS011;63169;46.042;14.592;2024-01-25T01:39:19;29.38;;;19.05;;
74650;SDS011;63169;46.042;14.592;2024-01-25T01:41:48;24.02;;;15.23;;
74650;SDS011;63169;46.042;14.592;2024-01-25T01:44:14;24.33;;;15.13;;
74650;SDS011;63169;46.042;14.592;2024-01-25T01:46:39;26.45;;;15.40;;
74650;SDS011;63169;46.042;14.592;2024-01-25T01:49:06;21.83;;;13.82;;
74650;SDS011;63169;46.042;14.592;2024-01-25T01:51:33;24.38;;;13.50;;
74650;SDS011;63169;46.042;14.592;2024-01-25T01:54:00;32.70;;;19.40;;
74650;SDS011;63169;46.042;14.592;2024-01-25T01:56:26;23.73;;;16.73;;
74650;SDS011;63169;46.042;14.592;2024-01-25T01:58:53;27.13;;;15.05;;
74650;SDS011;63169;46.042;14.592;2024-01-25T02:01:21;19.88;;;13.75;;
74650;SDS011;63169;46.042;14.592;2024-01-25T02:03:46;22.63;;;13.70;;
74650;SDS011;63169;46.042;14.592;2024-01-25T02:06:12;23.48;;;14.48;;
74650;SDS011;63169;46.042;14.592;2024-01-25T02:08:37;22.05;;;14.43;;
74650;SDS011;63169;46.042;14.592;2024-01-25T02:11:03;22.08;;;12.68;;
74650;SDS011;63169;46.042;14.592;2024-01-25T02:13:29;24.02;;;14.73;;
74650;SDS011;63169;46.042;14.592;2024-01-25T02:15:54;21.10;;;14.68;;
74650;SDS011;63169;46.042;14.592;2024-01-25T02:18:19;19.77;;;11.65;;
74650;SDS011;63169;46.042;14.592;2024-01-25T02:20:45;25.55;;;14.52;;
74650;SDS011;63169;46.042;14.592;2024-01-25T02:23:10;23.90;;;15.52;;
74650;SDS011;63169;46.042;14.592;2024-01-25T02:25:36;23.08;;;15.25;;
74650;SDS011;63169;46.042;14.592;2024-01-25T02:28:01;21.38;;;14.02;;
74650;SDS011;63169;46.042;14.592;2024-01-25T02:30:27;24.27;;;14.98;;
74650;SDS011;63169;46.042;14.592;2024-01-25T02:32:52;20.52;;;14.32;;
74650;SDS011;63169;46.042;14.592;2024-01-25T02:35:18;19.77;;;12.73;;
74650;SDS011;63169;46.042;14.592;2024-01-25T02:37:43;27.90;;;13.80;;
74650;SDS011;63169;46.042;14.592;2024-01-25T02:40:09;21.30;;;13.98;;
74650;SDS011;63169;46.042;14.592;2024-01-25T02:42:35;24.80;;;14.73;;
74650;SDS011;63169;46.042;14.592;2024-01-25T02:45:00;28.65;;;15.48;;
74650;SDS011;63169;46.042;14.592;2024-01-25T02:47:25;28.88;;;15.23;;
74650;SDS011;63169;46.042;14.592;2024-01-25T02:49:51;24.25;;;14.07;;
74650;SDS011;63169;46.042;14.592;2024-01-25T02:52:16;25.75;;;15.48;;
74650;SDS011;63169;46.042;14.592;2024-01-25T02:54:42;23.42;;;14.25;;
74650;SDS011;63169;46.042;14.592;2024-01-25T02:57:07;28.52;;;17.17;;
74650;SDS011;63169;46.042;14.592;2024-01-25T02:59:32;21.65;;;12.70;;
74650;SDS011;63169;46.042;14.592;2024-01-25T03:01:58;16.52;;;12.63;;
74650;SDS011;63169;46.042;14.592;2024-01-25T03:04:23;28.75;;;16.23;;
74650;SDS011;63169;46.042;14.592;2024-01-25T03:06:49;24.77;;;14.52;;
74650;SDS011;63169;46.042;14.592;2024-01-25T03:09:14;21.77;;;12.32;;
74650;SDS011;63169;46.042;14.592;2024-01-25T03:11:40;26.13;;;14.13;;
74650;SDS011;63169;46.042;14.592;2024-01-25T03:14:05;22.05;;;14.38;;
74650;SDS011;63169;46.042;14.592;2024-01-25T03:16:31;23.23;;;14.05;;
74650;SDS011;63169;46.042;14.592;2024-01-25T03:18:56;23.45;;;15.40;;
74650;SDS011;63169;46.042;14.592;2024-01-25T03:21:22;19.95;;;13.18;;
74650;SDS011;63169;46.042;14.592;2024-01-25T03:23:47;27.15;;;15.32;;
74650;SDS011;63169;46.042;14.592;2024-01-25T03:26:12;23.92;;;11.82;;
74650;SDS011;63169;46.042;14.592;2024-01-25T03:28:38;24.92;;;15.52;;
74650;SDS011;63169;46.042;14.592;2024-01-25T03:31:05;20.30;;;13.70;;
74650;SDS011;63169;46.042;14.592;2024-01-25T03:33:30;26.15;;;14.05;;
74650;SDS011;63169;46.042;14.592;2024-01-25T03:36:00;26.40;;;13.95;;
74650;SDS011;63169;46.042;14.592;2024-01-25T03:38:29;22.98;;;14.73;;
74650;SDS011;63169;46.042;14.592;2024-01-25T03:40:55;21.48;;;12.77;;
74650;SDS011;63169;46.042;14.592;2024-01-25T03:43:27;21.73;;;13.27;;
74650;SDS011;63169;46.042;14.592;2024-01-25T03:45:52;22.42;;;14.10;;
74650;SDS011;63169;46.042;14.592;2024-01-25T03:48:18;21.52;;;13.00;;
74650;SDS011;63169;46.042;14.592;2024-01-25T03:50:44;20.48;;;13.25;;
74650;SDS011;63169;46.042;14.592;2024-01-25T03:53:09;19.08;;;12.75;;
74650;SDS011;63169;46.042;14.592;2024-01-25T03:55:35;22.02;;;13.80;;
74650;SDS011;63169;46.042;14.592;2024-01-25T03:58:00;26.52;;;16.27;;
74650;SDS011;63169;46.042;14.592;2024-01-25T04:00:25;20.00;;;11.63;;
74650;SDS011;63169;46.042;14.592;2024-01-25T04:02:51;18.02;;;11.48;;
74650;SDS011;63169;46.042;14.592;2024-01-25T04:05:16;18.98;;;11.55;;
74650;SDS011;63169;46.042;14.592;2024-01-25T04:07:42;25.42;;;15.60;;
74650;SDS011;63169;46.042;14.592;2024-01-25T04:10:07;23.45;;;12.77;;
74650;SDS011;63169;46.042;14.592;2024-01-25T04:12:33;17.98;;;12.95;;
74650;SDS011;63169;46.042;14.592;2024-01-25T04:14:59;19.70;;;13.65;;
74650;SDS011;63169;46.042;14.592;2024-01-25T04:17:24;20.45;;;15.25;;
74650;SDS011;63169;46.042;14.592;2024-01-25T04:19:50;19.67;;;13.95;;
74650;SDS011;63169;46.042;14.592;2024-01-25T04:22:15;19.33;;;12.73;;
74650;SDS011;63169;46.042;14.592;2024-01-25T04:24:41;22.67;;;13.75;;
74650;SDS011;63169;46.042;14.592;2024-01-25T04:27:08;22.52;;;13.60;;
74650;SDS011;63169;46.042;14.592;2024-01-25T04:29:33;17.80;;;12.57;;
74650;SDS011;63169;46.042;14.592;2024-01-25T04:31:59;23.95;;;14.23;;
74650;SDS011;63169;46.042;14.592;2024-01-25T04:34:24;21.67;;;10.50;;
74650;SDS011;63169;46.042;14.592;2024-01-25T04:36:50;21.75;;;12.93;;
74650;SDS011;63169;46.042;14.592;2024-01-25T04:39:15;26.48;;;14.60;;
74650;SDS011;63169;46.042;14.592;2024-01-25T04:41:43;16.27;;;11.32;;
74650;SDS011;63169;46.042;14.592;2024-01-25T04:44:09;18.63;;;10.10;;
74650;SDS011;63169;46.042;14.592;2024-01-25T04:46:34;25.98;;;15.23;;
74650;SDS011;63169;46.042;14.592;2024-01-25T04:49:02;24.52;;;16.35;;
74650;SDS011;63169;46.042;14.592;2024-01-25T04:51:28;36.17;;;16.75;;
74650;SDS011;63169;46.042;14.592;2024-01-25T04:53:53;26.67;;;16.40;;
74650;SDS011;63169;46.042;14.592;2024-01-25T04:56:19;27.38;;;11.88;;
74650;SDS011;63169;46.042;14.592;2024-01-25T04:58:44;20.95;;;13.32;;
74650;SDS011;63169;46.042;14.592;2024-01-25T05:01:10;21.55;;;12.82;;
74650;SDS011;63169;46.042;14.592;2024-01-25T05:03:36;21.17;;;12.75;;
74650;SDS011;63169;46.042;14.592;2024-01-25T05:06:02;23.13;;;16.65;;
74650;SDS011;63169;46.042;14.592;2024-01-25T05:08:27;17.60;;;14.82;;
74650;SDS011;63169;46.042;14.592;2024-01-25T05:10:53;25.30;;;15.82;;
74650;SDS011;63169;46.042;14.592;2024-01-25T05:13:18;26.55;;;16.30;;
74650;SDS011;63169;46.042;14.592;2024-01-25T05:15:44;25.15;;;15.90;;
74650;SDS011;63169;46.042;14.592;2024-01-25T05:18:09;23.27;;;16.50;;
74650;SDS011;63169;46.042;14.592;2024-01-25T05:20:35;22.00;;;14.60;;
74650;SDS011;63169;46.042;14.592;2024-01-25T05:23:02;25.13;;;15.18;;
74650;SDS011;63169;46.042;14.592;2024-01-25T05:25:28;21.58;;;13.98;;
74650;SDS011;63169;46.042;14.592;2024-01-25T05:27:54;29.92;;;16.83;;
74650;SDS011;63169;46.042;14.592;2024-01-25T05:30:21;33.85;;;18.63;;
74650;SDS011;63169;46.042;14.592;2024-01-25T05:32:47;31.42;;;17.23;;
74650;SDS011;63169;46.042;14.592;2024-01-25T05:35:14;30.23;;;15.55;;
74650;SDS011;63169;46.042;14.592;2024-01-25T05:37:40;27.48;;;17.45;;
74650;SDS011;63169;46.042;14.592;2024-01-25T05:40:05;29.92;;;17.88;;
74650;SDS011;63169;46.042;14.592;2024-01-25T05:42:31;26.45;;;16.48;;
74650;SDS011;63169;46.042;14.592;2024-01-25T05:44:57;26.75;;;16.95;;
74650;SDS011;63169;46.042;14.592;2024-01-25T05:47:23;26.25;;;16.25;;
74650;SDS011;63169;46.042;14.592;2024-01-25T05:49:48;20.95;;;14.20;;
74650;SDS011;63169;46.042;14.592;2024-01-25T05:52:14;23.98;;;13.60;;
74650;SDS011;63169;46.042;14.592;2024-01-25T05:54:40;25.55;;;15.27;;
74650;SDS011;63169;46.042;14.592;2024-01-25T05:57:05;29.42;;;16.23;;
74650;SDS011;63169;46.042;14.592;2024-01-25T05:59:31;31.08;;;17.45;;
74650;SDS011;63169;46.042;14.592;2024-01-25T06:01:56;30.20;;;16.33;;
74650;SDS011;63169;46.042;14.592;2024-01-25T06:04:22;30.65;;;17.38;;
74650;SDS011;63169;46.042;14.592;2024-01-25T06:06:47;27.48;;;20.08;;
74650;SDS011;63169;46.042;14.592;2024-01-25T06:09:12;29.23;;;19.77;;
74650;SDS011;63169;46.042;14.592;2024-01-25T06:11:40;24.58;;;12.90;;
74650;SDS011;63169;46.042;14.592;2024-01-25T06:14:05;22.48;;;15.73;;
74650;SDS011;63169;46.042;14.592;2024-01-25T06:16:31;26.30;;;16.38;;
74650;SDS011;63169;46.042;14.592;2024-01-25T06:18:56;27.45;;;15.15;;
74650;SDS011;63169;46.042;14.592;2024-01-25T06:21:23;24.50;;;15.77;;
74650;SDS011;63169;46.042;14.592;2024-01-25T06:23:49;32.72;;;19.17;;
74650;SDS011;63169;46.042;14.592;2024-01-25T06:26:14;30.08;;;20.40;;
74650;SDS011;63169;46.042;14.592;2024-01-25T06:28:39;30.05;;;17.27;;
74650;SDS011;63169;46.042;14.592;2024-01-25T06:31:08;31.08;;;16.70;;
74650;SDS011;63169;46.042;14.592;2024-01-25T06:33:33;31.83;;;19.20;;
74650;SDS011;63169;46.042;14.592;2024-01-25T06:35:59;29.35;;;19.90;;
74650;SDS011;63169;46.042;14.592;2024-01-25T06:38:25;25.65;;;17.58;;
74650;SDS011;63169;46.042;14.592;2024-01-25T06:40:50;28.90;;;16.17;;
74650;SDS011;63169;46.042;14.592;2024-01-25T06:43:16;28.42;;;16.35;;
74650;SDS011;63169;46.042;14.592;2024-01-25T06:45:41;30.40;;;18.60;;
74650;SDS011;63169;46.042;14.592;2024-01-25T06:48:07;25.08;;;16.88;;
74650;SDS011;63169;46.042;14.592;2024-01-25T06:50:33;32.33;;;17.38;;
74650;SDS011;63169;46.042;14.592;2024-01-25T06:52:59;31.48;;;16.80;;
74650;SDS011;63169;46.042;14.592;2024-01-25T06:55:24;27.52;;;14.82;;
74650;SDS011;63169;46.042;14.592;2024-01-25T06:57:50;28.02;;;18.95;;
74650;SDS011;63169;46.042;14.592;2024-01-25T07:00:15;31.02;;;16.75;;
74650;SDS011;63169;46.042;14.592;2024-01-25T07:02:41;23.95;;;13.90;;
74650;SDS011;63169;46.042;14.592;2024-01-25T07:05:07;35.55;;;17.27;;
74650;SDS011;63169;46.042;14.592;2024-01-25T07:07:33;27.52;;;15.20;;
74650;SDS011;63169;46.042;14.592;2024-01-25T07:09:59;27.80;;;14.98;;
74650;SDS011;63169;46.042;14.592;2024-01-25T07:12:24;18.38;;;11.55;;
74650;SDS011;63169;46.042;14.592;2024-01-25T07:14:50;29.05;;;17.33;;
74650;SDS011;63169;46.042;14.592;2024-01-25T07:17:15;35.40;;;22.33;;
74650;SDS011;63169;46.042;14.592;2024-01-25T07:19:40;20.70;;;12.13;;
74650;SDS011;63169;46.042;14.592;2024-01-25T07:22:06;20.05;;;12.93;;
74650;SDS011;63169;46.042;14.592;2024-01-25T07:24:32;16.80;;;12.75;;
74650;SDS011;63169;46.042;14.592;2024-01-25T07:26:57;24.75;;;14.55;;
74650;SDS011;63169;46.042;14.592;2024-01-25T07:29:23;21.35;;;10.88;;
74650;SDS011;63169;46.042;14.592;2024-01-25T07:31:48;18.45;;;9.65;;
74650;SDS011;63169;46.042;14.592;2024-01-25T07:34:13;20.10;;;13.57;;
74650;SDS011;63169;46.042;14.592;2024-01-25T07:36:39;20.73;;;14.38;;
74650;SDS011;63169;46.042;14.592;2024-01-25T07:39:04;26.77;;;14.93;;
74650;SDS011;63169;46.042;14.592;2024-01-25T07:41:30;28.27;;;15.90;;
74650;SDS011;63169;46.042;14.592;2024-01-25T07:43:56;33.35;;;14.98;;
74650;SDS011;63169;46.042;14.592;2024-01-25T07:46:21;20.77;;;13.68;;
74650;SDS011;63169;46.042;14.592;2024-01-25T07:48:49;16.45;;;10.60;;
74650;SDS011;63169;46.042;14.592;2024-01-25T07:51:14;15.90;;;9.85;;
74650;SDS011;63169;46.042;14.592;2024-01-25T07:53:40;16.15;;;10.27;;
74650;SDS011;63169;46.042;14.592;2024-01-25T07:56:08;16.13;;;10.82;;
74650;SDS011;63169;46.042;14.592;2024-01-25T07:58:36;17.77;;;12.10;;
74650;SDS011;63169;46.042;14.592;2024-01-25T08:01:04;20.52;;;13.73;;
74650;SDS011;63169;46.042;14.592;2024-01-25T08:03:31;23.75;;;12.20;;
74650;SDS011;63169;46.042;14.592;2024-01-25T08:05:56;23.40;;;13.93;;
74650;SDS011;63169;46.042;14.592;2024-01-25T08:08:22;21.88;;;14.73;;
74650;SDS011;63169;46.042;14.592;2024-01-25T08:10:47;24.23;;;16.38;;
74650;SDS011;63169;46.042;14.592;2024-01-25T08:13:13;24.40;;;18.70;;
74650;SDS011;63169;46.042;14.592;2024-01-25T08:15:38;26.70;;;16.38;;
74650;SDS011;63169;46.042;14.592;2024-01-25T08:18:04;26.70;;;18.10;;
74650;SDS011;63169;46.042;14.592;2024-01-25T08:20:29;28.45;;;18.48;;
74650;SDS011;63169;46.042;14.592;2024-01-25T08:22:55;33.10;;;19.42;;
74650;SDS011;63169;46.042;14.592;2024-01-25T08:25:20;30.35;;;18.73;;
74650;SDS011;63169;46.042;14.592;2024-01-25T08:27:46;31.38;;;20.70;;
74650;SDS011;63169;46.042;14.592;2024-01-25T08:30:11;31.42;;;20.70;;
74650;SDS011;63169;46.042;14.592;2024-01-25T08:32:37;34.20;;;18.42;;
74650;SDS011;63169;46.042;14.592;2024-01-25T08:35:02;32.78;;;21.63;;
74650;SDS011;63169;46.042;14.592;2024-01-25T08:37:29;37.00;;;23.33;;
74650;SDS011;63169;46.042;14.592;2024-01-25T08:39:54;39.70;;;20.50;;
74650;SDS011;63169;46.042;14.592;2024-01-25T08:42:20;30.48;;;19.67;;
74650;SDS011;63169;46.042;14.592;2024-01-25T08:44:46;40.05;;;23.58;;
74650;SDS011;63169;46.042;14.592;2024-01-25T08:47:15;32.78;;;21.75;;
74650;SDS011;63169;46.042;14.592;2024-01-25T08:49:42;33.28;;;17.73;;
74650;SDS011;63169;46.042;14.592;2024-01-25T08:52:07;36.28;;;21.38;;
74650;SDS011;63169;46.042;14.592;2024-01-25T08:54:33;33.75;;;20.35;;
74650;SDS011;63169;46.042;14.592;2024-01-25T08:56:59;28.38;;;20.73;;
74650;SDS011;63169;46.042;14.592;2024-01-25T08:59:24;43.90;;;24.05;;
74650;SDS011;63169;46.042;14.592;2024-01-25T09:01:51;37.35;;;24.17;;
74650;SDS011;63169;46.042;14.592;2024-01-25T09:04:17;37.05;;;25.33;;
74650;SDS011;63169;46.042;14.592;2024-01-25T09:06:43;37.15;;;22.85;;
74650;SDS011;63169;46.042;14.592;2024-01-25T09:09:09;32.30;;;20.27;;
74650;SDS011;63169;46.042;14.592;2024-01-25T09:11:36;29.90;;;18.77;;
74650;SDS011;63169;46.042;14.592;2024-01-25T09:14:01;31.10;;;21.08;;
74650;SDS011;63169;46.042;14.592;2024-01-25T09:16:26;31.08;;;19.35;;
74650;SDS011;63169;46.042;14.592;2024-01-25T09:18:52;37.70;;;23.88;;
74650;SDS011;63169;46.042;14.592;2024-01-25T09:21:17;38.08;;;22.95;;
74650;SDS011;63169;46.042;14.592;2024-01-25T09:23:43;34.97;;;23.13;;
74650;SDS011;63169;46.042;14.592;2024-01-25T09:26:08;33.17;;;21.42;;
74650;SDS011;63169;46.042;14.592;2024-01-25T09:28:34;37.42;;;18.42;;
74650;SDS011;63169;46.042;14.592;2024-01-25T09:30:59;30.95;;;21.50;;
74650;SDS011;63169;46.042;14.592;2024-01-25T09:33:25;33.25;;;21.27;;
74650;SDS011;63169;46.042;14.592;2024-01-25T09:35:50;24.17;;;19.77;;
74650;SDS011;63169;46.042;14.592;2024-01-25T09:38:15;29.13;;;19.20;;
74650;SDS011;63169;46.042;14.592;2024-01-25T09:40:41;32.63;;;20.90;;
74650;SDS011;63169;46.042;14.592;2024-01-25T09:43:06;39.38;;;22.17;;
74650;SDS011;63169;46.042;14.592;2024-01-25T09:45:33;28.30;;;18.90;;
74650;SDS011;63169;46.042;14.592;2024-01-25T09:47:59;30.20;;;19.35;;
74650;SDS011;63169;46.042;14.592;2024-01-25T09:50:29;33.70;;;18.48;;
74650;SDS011;63169;46.042;14.592;2024-01-25T09:52:58;29.92;;;20.25;;
74650;SDS011;63169;46.042;14.592;2024-01-25T09:55:25;34.03;;;21.10;;
74650;SDS011;63169;46.042;14.592;2024-01-25T09:57:53;35.97;;;21.42;;
74650;SDS011;63169;46.042;14.592;2024-01-25T10:00:20;38.55;;;24.08;;
74650;SDS011;63169;46.042;14.592;2024-01-25T10:02:49;44.58;;;26.60;;
74650;SDS011;63169;46.042;14.592;2024-01-25T10:05:18;43.70;;;26.08;;
74650;SDS011;63169;46.042;14.592;2024-01-25T10:07:45;37.53;;;25.02;;
74650;SDS011;63169;46.042;14.592;2024-01-25T10:10:11;32.83;;;22.38;;
74650;SDS011;63169;46.042;14.592;2024-01-25T10:12:38;28.92;;;19.30;;
74650;SDS011;63169;46.042;14.592;2024-01-25T10:15:05;29.60;;;17.50;;
74650;SDS011;63169;46.042;14.592;2024-01-25T10:19:57;30.23;;;18.38;;
74650;SDS011;63169;46.042;14.592;2024-01-25T10:22:22;30.95;;;20.50;;
74650;SDS011;63169;46.042;14.592;2024-01-25T10:24:48;30.27;;;20.40;;
74650;SDS011;63169;46.042;14.592;2024-01-25T10:27:18;32.35;;;21.52;;
74650;SDS011;63169;46.042;14.592;2024-01-25T10:29:44;30.13;;;18.00;;
74650;SDS011;63169;46.042;14.592;2024-01-25T10:32:10;31.42;;;20.95;;
74650;SDS011;63169;46.042;14.592;2024-01-25T10:34:36;27.70;;;19.70;;
74650;SDS011;63169;46.042;14.592;2024-01-25T10:37:05;28.40;;;18.42;;
74650;SDS011;63169;46.042;14.592;2024-01-25T10:39:32;25.60;;;17.25;;
74650;SDS011;63169;46.042;14.592;2024-01-25T10:41:58;26.52;;;17.38;;
74650;SDS011;63169;46.042;14.592;2024-01-25T10:44:24;30.58;;;18.48;;
74650;SDS011;63169;46.042;14.592;2024-01-25T10:46:49;27.85;;;18.33;;
74650;SDS011;63169;46.042;14.592;2024-01-25T10:49:16;31.02;;;18.90;;
74650;SDS011;63169;46.042;14.592;2024-01-25T10:51:42;31.52;;;20.25;;
74650;SDS011;63169;46.042;14.592;2024-01-25T10:54:08;33.00;;;19.52;;
74650;SDS011;63169;46.042;14.592;2024-01-25T10:56:52;24.90;;;15.27;;
74650;SDS011;63169;46.042;14.592;2024-01-25T10:59:17;34.25;;;24.20;;
74650;SDS011;63169;46.042;14.592;2024-01-25T11:01:46;35.15;;;22.05;;
74650;SDS011;63169;46.042;14.592;2024-01-25T11:04:16;40.45;;;20.55;;
74650;SDS011;63169;46.042;14.592;2024-01-25T11:06:46;34.50;;;23.35;;
74650;SDS011;63169;46.042;14.592;2024-01-25T11:09:16;31.83;;;20.92;;
74650;SDS011;63169;46.042;14.592;2024-01-25T11:11:44;34.85;;;22.00;;
74650;SDS011;63169;46.042;14.592;2024-01-25T11:14:14;35.40;;;21.63;;
74650;SDS011;63169;46.042;14.592;2024-01-25T11:16:41;30.23;;;20.42;;
74650;SDS011;63169;46.042;14.592;2024-01-25T11:19:15;29.38;;;20.15;;
74650;SDS011;63169;46.042;14.592;2024-01-25T11:21:48;29.00;;;17.15;;
74650;SDS011;63169;46.042;14.592;2024-01-25T11:24:16;30.83;;;19.52;;
74650;SDS011;63169;46.042;14.592;2024-01-25T11:26:42;34.88;;;23.20;;
74650;SDS011;63169;46.042;14.592;2024-01-25T11:29:08;37.03;;;24.73;;
74650;SDS011;63169;46.042;14.592;2024-01-25T11:31:34;47.75;;;28.20;;
74650;SDS011;63169;46.042;14.592;2024-01-25T11:34:00;30.40;;;21.50;;
74650;SDS011;63169;46.042;14.592;2024-01-25T11:36:26;32.70;;;20.63;;
74650;SDS011;63169;46.042;14.592;2024-01-25T11:38:52;30.02;;;18.48;;
74650;SDS011;63169;46.042;14.592;2024-01-25T11:41:18;30.45;;;19.77;;
74650;SDS011;63169;46.042;14.592;2024-01-25T11:43:44;27.88;;;18.90;;
74650;SDS011;63169;46.042;14.592;2024-01-25T11:46:09;31.35;;;20.55;;
74650;SDS011;63169;46.042;14.592;2024-01-25T11:48:38;28.40;;;19.58;;
74650;SDS011;63169;46.042;14.592;2024-01-25T11:51:05;29.45;;;19.88;;
74650;SDS011;63169;46.042;14.592;2024-01-25T11:53:31;30.98;;;20.17;;
74650;SDS011;63169;46.042;14.592;2024-01-25T11:55:56;28.63;;;16.95;;
74650;SDS011;63169;46.042;14.592;2024-01-25T11:58:22;25.58;;;17.63;;
74650;SDS011;63169;46.042;14.592;2024-01-25T12:00:48;27.15;;;17.77;;
74650;SDS011;63169;46.042;14.592;2024-01-25T12:03:14;29.60;;;18.02;;
74650;SDS011;63169;46.042;14.592;2024-01-25T12:05:40;25.95;;;17.75;;
74650;SDS011;63169;46.042;14.592;2024-01-25T12:08:10;26.27;;;17.95;;
74650;SDS011;63169;46.042;14.592;2024-01-25T12:10:38;27.85;;;15.30;;
74650;SDS011;63169;46.042;14.592;2024-01-25T12:13:05;31.15;;;19.00;;
74650;SDS011;63169;46.042;14.592;2024-01-25T12:15:34;26.20;;;16.10;;
74650;SDS011;63169;46.042;14.592;2024-01-25T12:18:00;23.05;;;17.63;;
74650;SDS011;63169;46.042;14.592;2024-01-25T12:20:27;23.52;;;16.92;;
74650;SDS011;63169;46.042;14.592;2024-01-25T12:22:54;24.50;;;18.52;;
74650;SDS011;63169;46.042;14.592;2024-01-25T12:25:23;26.08;;;18.88;;
74650;SDS011;63169;46.042;14.592;2024-01-25T12:27:49;40.78;;;23.30;;
74650;SDS011;63169;46.042;14.592;2024-01-25T12:30:15;35.63;;;24.42;;
74650;SDS011;63169;46.042;14.592;2024-01-25T12:32:44;39.25;;;24.02;;
74650;SDS011;63169;46.042;14.592;2024-01-25T12:35:09;40.08;;;23.70;;
74650;SDS011;63169;46.042;14.592;2024-01-25T12:37:34;33.50;;;23.40;;
74650;SDS011;63169;46.042;14.592;2024-01-25T12:40:00;32.33;;;20.83;;
74650;SDS011;63169;46.042;14.592;2024-01-25T12:42:29;34.47;;;19.50;;
74650;SDS011;63169;46.042;14.592;2024-01-25T12:44:54;36.42;;;22.48;;
74650;SDS011;63169;46.042;14.592;2024-01-25T12:47:20;31.60;;;19.10;;
74650;SDS011;63169;46.042;14.592;2024-01-25T12:49:45;25.02;;;17.58;;
74650;SDS011;63169;46.042;14.592;2024-01-25T12:52:11;27.08;;;16.70;;
74650;SDS011;63169;46.042;14.592;2024-01-25T12:54:37;31.33;;;20.75;;
74650;SDS011;63169;46.042;14.592;2024-01-25T12:57:03;34.72;;;21.42;;
74650;SDS011;63169;46.042;14.592;2024-01-25T12:59:29;33.95;;;20.80;;
74650;SDS011;63169;46.042;14.592;2024-01-25T13:01:55;37.08;;;22.23;;
74650;SDS011;63169;46.042;14.592;2024-01-25T13:04:21;35.42;;;23.27;;
74650;SDS011;63169;46.042;14.592;2024-01-25T13:06:47;37.22;;;23.92;;
74650;SDS011;63169;46.042;14.592;2024-01-25T13:09:13;34.20;;;21.13;;
74650;SDS011;63169;46.042;14.592;2024-01-25T13:11:40;32.55;;;18.80;;
74650;SDS011;63169;46.042;14.592;2024-01-25T13:14:06;25.05;;;15.93;;
74650;SDS011;63169;46.042;14.592;2024-01-25T13:16:32;18.58;;;14.48;;
74650;SDS011;63169;46.042;14.592;2024-01-25T13:18:57;19.23;;;14.50;;
74650;SDS011;63169;46.042;14.592;2024-01-25T13:21:23;21.90;;;16.17;;
74650;SDS011;63169;46.042;14.592;2024-01-25T13:23:48;21.17;;;17.65;;
74650;SDS011;63169;46.042;14.592;2024-01-25T13:26:14;25.98;;;19.02;;
74650;SDS011;63169;46.042;14.592;2024-01-25T13:28:39;26.85;;;19.50;;
74650;SDS011;63169;46.042;14.592;2024-01-25T13:31:05;32.35;;;20.52;;
74650;SDS011;63169;46.042;14.592;2024-01-25T13:33:30;37.53;;;19.10;;
74650;SDS011;63169;46.042;14.592;2024-01-25T13:35:55;39.35;;;23.33;;
74650;SDS011;63169;46.042;14.592;2024-01-25T13:38:21;34.15;;;21.00;;
74650;SDS011;63169;46.042;14.592;2024-01-25T13:40:46;36.60;;;22.63;;
74650;SDS011;63169;46.042;14.592;2024-01-25T13:43:12;35.53;;;23.17;;
74650;SDS011;63169;46.042;14.592;2024-01-25T13:45:37;30.73;;;18.95;;
74650;SDS011;63169;46.042;14.592;2024-01-25T13:48:03;32.20;;;21.52;;
74650;SDS011;63169;46.042;14.592;2024-01-25T13:50:28;35.17;;;21.50;;
74650;SDS011;63169;46.042;14.592;2024-01-25T13:52:56;27.25;;;18.17;;
74650;SDS011;63169;46.042;14.592;2024-01-25T13:55:22;34.17;;;20.67;;
74650;SDS011;63169;46.042;14.592;2024-01-25T13:57:47;31.13;;;21.02;;
74650;SDS011;63169;46.042;14.592;2024-01-25T14:00:13;29.67;;;17.13;;
74650;SDS011;63169;46.042;14.592;2024-01-25T14:02:39;33.22;;;21.23;;
74650;SDS011;63169;46.042;14.592;2024-01-25T14:05:07;31.38;;;21.42;;